Hattiesburg South, Mississippi
Current Conditions -  °F | °C
As of 1:53 AM on Friday 31 Oct 2014 (Local Time) from KHBG Reporting Station
Clear Clear  
Wind Chill: 45°   Ceiling: Unl
Heat Index: 45°   Visibility: 10mi
Dew Point: 43°   Wind: 0mph
Humidity: 93%   Direction: NA
Pressure: 30.06"   Gusts: NA
Location:  31.1996°N, 89.2694°W
Report Text: KHBG 310653Z AUTO 00000KT 10SM CLR 07/06 A3006 RMK AO2 SLP177 T00720061
Loading
Personal Weather Stations






























Interactive Weather Map
Tropical Storm Tracking
New forecast layout! Learn more

10-Day Weather Forecast

Advertisements
Track Severe Weather on mobile